Time;durP1;ratioP1;P1;durP2;ratioP2;P2;SDS_P1;SDS_P2;PMS_P1;PMS_P2;Temp;Humidity;BMP_temperature;BMP_pressure;BME280_temperature;BME280_humidity;BME280_pressure;Samples;Min_cycle;Max_cycle;Signal;HPM_P1;HPM_P2
2022/09/03 00:01:00;;;;;;;;;;;;;;;23.73;38.63;99174.69;4454202;32;33180;-83
2022/09/03 00:03:28;;;;;;;;;;;;;;;23.63;38.77;99174.16;4461668;32;34263;-83
2022/09/03 00:06:12;;;;;;;;;;;;;;;23.52;39.25;99181.66;4469079;32;35143;-82
2022/09/03 00:08:44;;;;;;;;;;;;;;;23.58;39.30;99183.22;4455947;32;34932;-82
2022/09/03 00:11:26;;;;;;;;;;;;;;;23.60;39.23;99174.31;4453466;32;33237;-82
2022/09/03 00:13:56;;;;;;;;;;;;;;;23.55;39.37;99181.53;4478225;32;34122;-83
2022/09/03 00:16:25;;;;;;;;;;;;;;;23.45;39.51;99188.09;4468361;32;33949;-83
2022/09/03 00:18:55;;;;;;;;;;;;;;;23.52;39.06;99176.38;4454918;32;34177;-83
2022/09/03 00:21:43;;;;;;;;;;;;;;;23.50;39.15;99178.22;4465883;32;33718;-83
2022/09/03 00:24:11;;;;;;;;;;;;;;;23.55;38.94;99186.84;4483206;32;33131;-83
2022/09/03 00:26:45;;;;;;;;;;;;;;;23.35;39.34;99186.78;4463480;32;33732;-83
2022/09/03 00:29:23;;;;;;;;;;;;;;;23.50;39.07;99176.44;4453373;32;34987;-83
2022/09/03 00:31:52;;;;;;;;;;;;;;;23.41;39.05;99190.03;4453522;32;31891;-84
2022/09/03 00:34:23;;;;;;;;;;;;;;;23.43;38.95;99184.69;4453194;32;34026;-84
2022/09/03 00:36:50;;;;;;;;;;;;;;;23.36;38.90;99183.19;4473670;32;34544;-84
2022/09/03 00:39:18;;;;;;;;;;;;;;;23.32;39.04;99185.09;4470766;32;34220;-83
2022/09/03 00:42:07;;;;;;;;;;;;;;;23.29;39.26;99182.56;4467324;32;34272;-84
2022/09/03 00:44:37;;;;;;;;;;;;;;;23.30;39.41;99179.88;4467311;32;35180;-82
2022/09/03 00:47:12;;;;;;;;;;;;;;;23.33;39.32;99185.94;4474817;32;34398;-83
2022/09/03 00:49:59;;;;;;;;;;;;;;;23.39;39.10;99183.94;4450701;32;33926;-83
2022/09/03 00:52:37;;;;;;;;;;;;;;;23.39;38.94;99191.00;4450639;32;32891;-84
2022/09/03 00:55:13;;;;;;;;;;;;;;;23.29;39.38;99182.56;4450082;32;33990;-83
2022/09/03 00:57:41;;;;;;;;;;;;;;;23.41;38.96;99184.75;4451693;32;35272;-83
2022/09/03 01:00:12;;;;;;;;;;;;;;;23.41;38.64;99183.88;4451802;32;33650;-83
2022/09/03 01:02:56;;;;;;;;;;;;;;;23.31;38.69;99186.88;4450216;32;33579;-83
2022/09/03 01:05:37;;;;;;;;;;;;;;;23.35;38.66;99186.78;4450048;32;33543;-84
2022/09/03 01:08:23;;;;;;;;;;;;;;;23.05;39.76;99192.31;4451323;32;34280;-83
2022/09/03 01:10:52;;;;;;;;;;;;;;;23.00;40.30;99195.13;4451481;32;34197;-83
2022/09/03 01:13:38;;;;;;;;;;;;;;;23.01;40.23;99196.84;4451395;32;34036;-82
2022/09/03 01:16:26;;;;;;;;;;;;;;;23.13;39.90;99192.03;4459897;32;33251;-84
2022/09/03 01:19:12;;;;;;;;;;;;;;;23.12;39.96;99207.03;4450993;32;34355;-84
2022/09/03 01:21:45;;;;;;;;;;;;;;;23.21;39.84;99204.03;4451034;32;34344;-83
2022/09/03 01:24:12;;;;;;;;;;;;;;;23.43;39.41;99209.34;4450474;32;33400;-84
2022/09/03 01:26:55;;;;;;;;;;;;;;;23.14;39.98;99207.81;4454683;32;35108;-82
2022/09/03 01:29:31;;;;;;;;;;;;;;;23.15;39.71;99201.63;4450167;32;34368;-83
2022/09/03 01:32:14;;;;;;;;;;;;;;;23.30;39.23;99195.75;4452739;32;33616;-83
2022/09/03 01:35:01;;;;;;;;;;;;;;;23.30;38.88;99202.81;4466414;32;33464;-82
2022/09/03 01:37:32;;;;;;;;;;;;;;;23.30;38.89;99201.03;4465675;32;34186;-82
2022/09/03 01:40:11;;;;;;;;;;;;;;;23.23;39.12;99196.91;4462179;32;35159;-83
2022/09/03 01:42:47;;;;;;;;;;;;;;;23.15;39.42;99198.13;4457540;32;34933;-83
2022/09/03 01:45:32;;;;;;;;;;;;;;;23.11;39.54;99207.97;4467238;32;33515;-84
2022/09/03 01:48:05;;;;;;;;;;;;;;;23.12;39.57;99204.38;4453459;32;34915;-83
2022/09/03 01:50:39;;;;;;;;;;;;;;;23.08;39.75;99202.78;4451886;32;34863;-82
2022/09/03 01:53:18;;;;;;;;;;;;;;;23.14;39.54;99207.81;4459411;32;34178;-84
2022/09/03 01:56:07;;;;;;;;;;;;;;;22.96;39.95;99201.47;4466963;32;33955;-83
2022/09/03 01:58:39;;;;;;;;;;;;;;;23.00;39.87;99210.13;4452993;32;34038;-83
2022/09/03 02:01:09;;;;;;;;;;;;;;;23.12;39.38;99208.81;4453020;32;35359;-83
2022/09/03 02:03:37;;;;;;;;;;;;;;;23.14;39.01;99204.31;4457846;32;34239;-83
2022/09/03 02:06:08;;;;;;;;;;;;;;;23.13;39.11;99207.87;4451895;32;33462;-83
2022/09/03 02:08:35;;;;;;;;;;;;;;;23.18;39.07;99203.28;4451800;32;33749;-82
2022/09/03 02:11:04;;;;;;;;;;;;;;;23.02;39.50;99208.28;4452942;32;34150;-83
2022/09/03 02:13:37;;;;;;;;;;;;;;;23.02;39.40;99203.84;4457832;32;34156;-83
2022/09/03 02:16:07;;;;;;;;;;;;;;;23.20;39.04;99201.44;4451649;32;32419;-83
2022/09/03 02:18:36;;;;;;;;;;;;;;;23.04;39.35;99206.47;4451736;32;33821;-82
2022/09/03 02:21:03;;;;;;;;;;;;;;;22.92;39.63;99206.88;4451648;32;33816;-83
2022/09/03 02:23:30;;;;;;;;;;;;;;;22.92;39.76;99209.53;4459091;32;33926;-83
2022/09/03 02:26:02;;;;;;;;;;;;;;;23.04;39.41;99207.31;4451664;32;32785;-82
2022/09/03 02:28:29;;;;;;;;;;;;;;;23.12;39.38;99208.81;4451622;32;33871;-83
2022/09/03 02:30:57;;;;;;;;;;;;;;;22.98;39.64;99206.69;4451322;32;35743;-83
2022/09/03 02:33:25;;;;;;;;;;;;;;;22.92;39.81;99201.59;4459079;32;34637;-83
2022/09/03 02:35:52;;;;;;;;;;;;;;;22.95;39.52;99209.44;4451430;32;33419;-83
2022/09/03 02:38:20;;;;;;;;;;;;;;;22.90;39.53;99200.78;4452775;32;34215;-83
2022/09/03 02:40:48;;;;;;;;;;;;;;;23.05;38.94;99209.03;4450999;32;34383;-82
2022/09/03 02:43:19;;;;;;;;;;;;;;;22.89;39.29;99202.56;4458553;32;34653;-82
2022/09/03 02:45:53;;;;;;;;;;;;;;;22.89;39.55;99201.72;4451416;32;32886;-83
2022/09/03 02:48:22;;;;;;;;;;;;;;;22.93;39.62;99211.28;4451772;32;34277;-83
2022/09/03 02:50:50;;;;;;;;;;;;;;;22.76;40.02;99204.78;4465643;32;34429;-83
2022/09/03 02:53:17;;;;;;;;;;;;;;;22.56;40.61;99209.94;4473179;32;34555;-82
2022/09/03 02:55:44;;;;;;;;;;;;;;;22.59;40.65;99215.09;4469689;32;33478;-83
2022/09/03 02:58:11;;;;;;;;;;;;;;;22.73;40.23;99217.25;4483885;32;34215;-82
2022/09/03 03:00:39;;;;;;;;;;;;;;;22.68;40.40;99214.75;4463103;32;35012;-82
2022/09/03 03:03:06;;;;;;;;;;;;;;;22.70;40.10;99205.03;4468441;32;34052;-83
2022/09/03 03:05:42;;;;;;;;;;;;;;;22.72;39.94;99211.09;4468317;32;33216;-83
2022/09/03 03:08:11;;;;;;;;;;;;;;;22.84;39.61;99207.13;4456190;32;34973;-83
2022/09/03 03:10:38;;;;;;;;;;;;;;;22.75;39.65;99208.34;4477588;32;35095;-83
2022/09/03 03:13:06;;;;;;;;;;;;;;;22.75;39.85;99200.41;4453724;32;32826;-83
2022/09/03 03:15:33;;;;;;;;;;;;;;;22.63;40.49;99206.16;4468898;32;33327;-83
2022/09/03 03:18:00;;;;;;;;;;;;;;;22.68;40.50;99206.84;4468155;32;35106;-83
2022/09/03 03:20:27;;;;;;;;;;;;;;;22.79;40.27;99212.59;4472335;32;34274;-82
2022/09/03 03:22:55;;;;;;;;;;;;;;;22.90;39.88;99212.22;4473828;32;34161;-83
2022/09/03 03:25:22;;;;;;;;;;;;;;;22.78;40.26;99216.16;4467919;32;33254;-83
2022/09/03 03:27:49;;;;;;;;;;;;;;;22.85;40.29;99216.81;4458998;32;34316;-83
2022/09/03 03:30:18;;;;;;;;;;;;;;;23.01;40.27;99223.28;4483756;31;33977;-83
2022/09/03 03:32:45;;;;;;;;;;;;;;;22.95;40.00;99220.84;4475415;31;34493;-83
2022/09/03 03:35:13;;;;;;;;;;;;;;;23.05;39.45;99224.03;4467986;32;33710;-83
2022/09/03 03:37:40;;;;;;;;;;;;;;;22.96;39.71;99221.75;4458094;31;34007;-83
2022/09/03 03:40:07;;;;;;;;;;;;;;;23.00;39.91;99226.88;4483476;32;34090;-83
2022/09/03 03:42:35;;;;;;;;;;;;;;;23.04;39.92;99222.31;4476598;32;34788;-83
2022/09/03 03:45:02;;;;;;;;;;;;;;;22.90;40.27;99225.44;4468018;32;33373;-83
2022/09/03 03:47:30;;;;;;;;;;;;;;;22.88;40.33;99226.41;4470752;32;34035;-84
2022/09/03 03:49:57;;;;;;;;;;;;;;;22.85;40.17;99227.41;4474538;32;33775;-82
2022/09/03 03:52:25;;;;;;;;;;;;;;;22.89;39.74;99226.34;4466950;32;34406;-83
2022/09/03 03:54:52;;;;;;;;;;;;;;;22.94;39.58;99216.50;4467635;32;34293;-84
2022/09/03 03:57:22;;;;;;;;;;;;;;;22.93;39.35;99225.34;4469440;32;35132;-83
2022/09/03 03:59:49;;;;;;;;;;;;;;;22.89;39.35;99230.78;4475658;32;35239;-82
2022/09/03 04:02:16;;;;;;;;;;;;;;;22.86;39.41;99238.81;4467980;32;34081;-82
2022/09/03 04:04:44;;;;;;;;;;;;;;;22.81;39.45;99237.22;4453440;32;33459;-83
2022/09/03 04:07:11;;;;;;;;;;;;;;;22.86;39.30;99241.47;4468160;32;35042;-84
2022/09/03 04:09:38;;;;;;;;;;;;;;;22.76;39.55;99238.28;4476816;32;34221;-83
2022/09/03 04:12:07;;;;;;;;;;;;;;;22.77;39.59;99240.88;4467382;32;34050;-83
2022/09/03 04:14:34;;;;;;;;;;;;;;;22.81;39.35;99247.78;4467809;32;34120;-83
2022/09/03 04:17:01;;;;;;;;;;;;;;;22.82;39.44;99241.56;4467694;32;34075;-82
2022/09/03 04:19:29;;;;;;;;;;;;;;;22.82;39.50;99249.50;4472785;32;32993;-84
2022/09/03 04:21:56;;;;;;;;;;;;;;;22.77;39.63;99254.09;4483295;32;34067;-83
2022/09/03 04:24:23;;;;;;;;;;;;;;;22.87;39.13;99246.69;4483115;32;34255;-83
2022/09/03 04:26:52;;;;;;;;;;;;;;;22.90;39.18;99251.00;4476259;31;34034;-83
2022/09/03 04:29:20;;;;;;;;;;;;;;;22.82;39.58;99251.28;4454028;32;33325;-83
2022/09/03 04:34:34;;;;;;;;;;;;;;;22.59;40.18;99246.81;4467609;32;33202;-82
2022/09/03 04:37:01;;;;;;;;;;;;;;;22.79;39.84;99249.59;4474885;32;34078;-82
2022/09/03 04:39:28;;;;;;;;;;;;;;;22.88;39.41;99258.12;4467833;32;34360;-82
2022/09/03 04:41:55;;;;;;;;;;;;;;;22.88;39.48;99259.00;4467515;32;34291;-82
2022/09/03 04:44:25;;;;;;;;;;;;;;;23.08;39.54;99271.53;4467636;32;33094;-83
2022/09/03 04:46:53;;;;;;;;;;;;;;;23.43;39.28;99256.13;4473434;32;34930;-82
2022/09/03 04:49:20;;;;;;;;;;;;;;;23.81;38.64;99262.59;4469025;32;34973;-82
2022/09/03 04:51:47;;;;;;;;;;;;;;;23.90;38.92;99258.72;4467259;32;33939;-83
2022/09/03 04:54:15;;;;;;;;;;;;;;;24.44;37.63;99262.72;4466986;32;33534;-83
2022/09/03 04:56:42;;;;;;;;;;;;;;;24.79;37.25;99258.53;4466968;32;34339;-83
2022/09/03 04:59:09;;;;;;;;;;;;;;;24.82;37.63;99263.69;4467081;32;35328;-83
2022/09/03 05:01:37;;;;;;;;;;;;;;;25.27;36.30;99254.66;4466750;32;34289;-83
2022/09/03 05:04:05;;;;;;;;;;;;;;;25.50;35.97;99266.00;4467339;32;32881;-83
2022/09/03 05:06:33;;;;;;;;;;;;;;;25.71;35.57;99251.69;4466878;32;35150;-83
2022/09/03 05:09:00;;;;;;;;;;;;;;;25.43;36.50;99260.09;4466678;32;33961;-83
2022/09/03 05:11:29;;;;;;;;;;;;;;;25.95;35.38;99244.38;4467270;32;33244;-83
2022/09/03 05:13:57;;;;;;;;;;;;;;;26.06;35.29;99257.09;4466910;32;34140;-83
2022/09/03 05:16:24;;;;;;;;;;;;;;;26.26;34.96;99257.00;4466223;32;34854;-83
2022/09/03 05:18:52;;;;;;;;;;;;;;;26.25;35.17;99267.69;4466648;32;34023;-83
2022/09/03 05:21:20;;;;;;;;;;;;;;;26.34;34.94;99264.59;4439762;32;32819;-82
2022/09/03 05:23:49;;;;;;;;;;;;;;;26.13;35.37;99264.69;4452779;32;33265;-83
2022/09/03 05:26:17;;;;;;;;;;;;;;;26.40;35.31;99258.94;4452165;32;33938;-83
2022/09/03 05:28:45;;;;;;;;;;;;;;;26.35;35.24;99256.53;4452620;32;34289;-83
2022/09/03 05:31:16;;;;;;;;;;;;;;;26.30;35.25;99249.72;4466761;32;34011;-83
2022/09/03 05:33:48;;;;;;;;;;;;;;;26.40;35.10;99254.50;4466863;32;32463;-83
2022/09/03 05:36:16;;;;;;;;;;;;;;;26.55;35.01;99255.53;4465734;32;34343;-83
2022/09/03 05:38:44;;;;;;;;;;;;;;;26.53;35.16;99254.75;4452703;32;33975;-83
2022/09/03 05:41:12;;;;;;;;;;;;;;;26.65;34.99;99262.09;4452724;32;33881;-82
2022/09/03 05:43:39;;;;;;;;;;;;;;;26.50;35.94;99264.69;4452671;32;33064;-84
2022/09/03 05:46:10;;;;;;;;;;;;;;;26.57;35.62;99261.66;4452693;32;35205;-82
2022/09/03 05:48:38;;;;;;;;;;;;;;;25.80;37.61;99263.69;4466470;32;35259;-84
2022/09/03 05:51:06;;;;;;;;;;;;;;;26.48;35.93;99266.56;4465737;32;33790;-84
2022/09/03 05:53:35;;;;;;;;;;;;;;;26.25;36.53;99270.34;4451652;32;32134;-84
2022/09/03 05:56:04;;;;;;;;;;;;;;;26.05;36.63;99276.66;4466373;32;35041;-84
2022/09/03 05:58:37;;;;;;;;;;;;;;;25.76;37.10;99276.25;4466302;32;35132;-84
2022/09/03 06:01:09;;;;;;;;;;;;;;;25.38;38.03;99268.28;4452293;32;34130;-84
2022/09/03 06:03:38;;;;;;;;;;;;;;;25.29;38.14;99266.03;4465804;32;33550;-82
2022/09/03 06:06:06;;;;;;;;;;;;;;;25.88;37.32;99266.84;4465796;32;33948;-84
2022/09/03 06:08:33;;;;;;;;;;;;;;;25.47;37.72;99272.28;4452149;32;33939;-84
2022/09/03 06:11:03;;;;;;;;;;;;;;;25.75;37.53;99271.84;4465693;32;33921;-84
2022/09/03 06:13:30;;;;;;;;;;;;;;;24.80;39.88;99268.19;4466082;32;33204;-83
2022/09/03 06:15:57;;;;;;;;;;;;;;;25.41;38.43;99267.25;4468007;32;35177;-84
2022/09/03 06:18:25;;;;;;;;;;;;;;;25.85;37.93;99267.00;4468306;32;33947;-83
2022/09/03 06:20:56;;;;;;;;;;;;;;;25.93;36.68;99267.47;4453912;32;34494;-83
2022/09/03 06:23:23;;;;;;;;;;;;;;;25.37;39.05;99263.88;4476095;32;33387;-83
2022/09/03 06:26:03;;;;;;;;;;;;;;;25.64;38.69;99264.38;4469791;32;33896;-83
2022/09/03 06:28:33;;;;;;;;;;;;;;;25.65;38.41;99265.25;4484092;32;34249;-84
2022/09/03 06:31:01;;;;;;;;;;;;;;;24.48;39.03;99259.00;4460169;32;34044;-84
2022/09/03 06:33:30;;;;;;;;;;;;;;;25.51;38.92;99265.91;4461945;32;33320;-84
2022/09/03 06:36:00;;;;;;;;;;;;;;;25.70;37.65;99257.94;4483874;32;34915;-84
2022/09/03 06:38:34;;;;;;;;;;;;;;;25.61;36.96;99261.00;4484028;31;35370;-84
2022/09/03 06:41:09;;;;;;;;;;;;;;;25.36;37.83;99263.97;4474257;32;34263;-84
2022/09/03 06:43:37;;;;;;;;;;;;;;;24.49;38.98;99260.72;4454325;32;34116;-84
2022/09/03 06:46:08;;;;;;;;;;;;;;;24.85;38.70;99258.28;4465702;32;34093;-84
2022/09/03 06:48:36;;;;;;;;;;;;;;;24.09;39.59;99257.03;4459943;32;33974;-83
2022/09/03 06:51:05;;;;;;;;;;;;;;;24.54;38.92;99253.41;4455594;32;34113;-83
2022/09/03 06:53:34;;;;;;;;;;;;;;;24.75;38.68;99257.81;4465594;32;34195;-83
2022/09/03 06:56:02;;;;;;;;;;;;;;;24.37;39.14;99262.06;4475040;32;34052;-83
2022/09/03 06:58:36;;;;;;;;;;;;;;;24.60;38.81;99253.16;4453753;32;34087;-84
2022/09/03 07:01:05;;;;;;;;;;;;;;;24.32;39.22;99257.88;4467325;32;33550;-83
2022/09/03 07:03:36;;;;;;;;;;;;;;;24.50;38.14;99259.78;4483517;32;34306;-82
2022/09/03 07:06:07;;;;;;;;;;;;;;;25.19;37.08;99257.66;4483782;31;35174;-84
2022/09/03 07:08:34;;;;;;;;;;;;;;;24.69;37.98;99255.41;4471885;32;34138;-84
2022/09/03 07:11:04;;;;;;;;;;;;;;;24.88;37.89;99260.75;4445366;32;33174;-83
2022/09/03 07:13:32;;;;;;;;;;;;;;;25.35;37.25;99256.94;4480659;32;32782;-83
2022/09/03 07:16:00;;;;;;;;;;;;;;;25.91;36.48;99258.72;4469828;32;34315;-83
2022/09/03 07:18:27;;;;;;;;;;;;;;;26.04;36.15;99254.53;4453727;32;34112;-84
2022/09/03 07:21:02;;;;;;;;;;;;;;;25.45;36.11;99259.06;4454030;32;33945;-84
2022/09/03 07:23:30;;;;;;;;;;;;;;;25.79;36.37;99254.00;4472182;32;34133;-84
2022/09/03 07:26:02;;;;;;;;;;;;;;;25.99;36.17;99248.59;4467961;32;34368;-83
2022/09/03 07:28:31;;;;;;;;;;;;;;;26.16;35.48;99253.91;4453970;32;34804;-84
2022/09/03 07:31:06;;;;;;;;;;;;;;;26.33;35.92;99252.19;4459260;32;34076;-84
2022/09/03 07:33:33;;;;;;;;;;;;;;;25.73;37.04;99256.00;4469579;32;34282;-84
2022/09/03 07:36:05;;;;;;;;;;;;;;;25.75;36.36;99260.34;4478414;32;34211;-85
2022/09/03 07:38:33;;;;;;;;;;;;;;;25.43;37.16;99257.44;4467820;32;33950;-84
2022/09/03 07:41:01;;;;;;;;;;;;;;;26.50;35.13;99257.56;4456497;32;33624;-84
2022/09/03 07:43:28;;;;;;;;;;;;;;;26.95;34.66;99264.09;4483436;31;33445;-84
2022/09/03 07:45:56;;;;;;;;;;;;;;;26.23;35.03;99266.91;4483804;32;33738;-84
2022/09/03 07:48:24;;;;;;;;;;;;;;;26.05;35.61;99258.91;4479873;32;34187;-86
2022/09/03 07:50:52;;;;;;;;;;;;;;;26.56;34.74;99259.94;4466235;32;34341;-86
2022/09/03 07:53:19;;;;;;;;;;;;;;;26.68;34.92;99259.28;4467917;32;32872;-86
2022/09/03 07:55:48;;;;;;;;;;;;;;;26.10;35.12;99262.22;4467738;32;34293;-83
2022/09/03 07:58:16;;;;;;;;;;;;;;;25.59;35.84;99261.09;4467601;32;33946;-85
2022/09/03 08:00:43;;;;;;;;;;;;;;;26.47;34.92;99255.06;4458722;32;34301;-86
2022/09/03 08:03:11;;;;;;;;;;;;;;;26.17;35.05;99266.25;4466197;32;33162;-83
2022/09/03 08:05:39;;;;;;;;;;;;;;;25.59;37.03;99277.03;4458080;32;34821;-86
2022/09/03 08:08:07;;;;;;;;;;;;;;;26.68;34.91;99264.59;4452115;32;35164;-84
2022/09/03 08:10:34;;;;;;;;;;;;;;;26.95;34.56;99266.75;4454888;32;34018;-85
2022/09/03 08:13:04;;;;;;;;;;;;;;;25.64;35.97;99267.03;4467676;32;33188;-84
2022/09/03 08:15:33;;;;;;;;;;;;;;;26.37;35.57;99270.59;4467197;32;34139;-84
2022/09/03 08:18:00;;;;;;;;;;;;;;;26.46;35.72;99265.78;4463834;32;33904;-82
2022/09/03 08:20:31;;;;;;;;;;;;;;;26.92;35.52;99266.94;4462775;32;34761;-82
2022/09/03 08:23:01;;;;;;;;;;;;;;;27.01;34.39;99266.47;4452773;32;33117;-83
2022/09/03 08:25:29;;;;;;;;;;;;;;;27.23;34.06;99267.97;4450253;32;32467;-83
2022/09/03 08:27:59;;;;;;;;;;;;;;;27.08;34.33;99265.16;4451570;32;35208;-83
2022/09/03 08:30:27;;;;;;;;;;;;;;;27.02;34.29;99272.62;4451531;32;34244;-85
2022/09/03 08:32:54;;;;;;;;;;;;;;;27.11;34.14;99274.81;4452562;32;32930;-83
2022/09/03 08:35:21;;;;;;;;;;;;;;;27.30;33.26;99266.72;4465290;32;34764;-82
2022/09/03 08:37:50;;;;;;;;;;;;;;;26.41;34.81;99272.16;4466754;32;34117;-83
2022/09/03 08:40:23;;;;;;;;;;;;;;;27.22;33.60;99276.91;4467099;32;34850;-84
2022/09/03 08:42:59;;;;;;;;;;;;;;;26.79;34.17;99274.69;4467549;32;33036;-82
2022/09/03 08:45:33;;;;;;;;;;;;;;;26.93;34.09;99284.59;4463664;32;35013;-85
2022/09/03 08:48:08;;;;;;;;;;;;;;;26.85;34.67;99270.84;4452936;32;33806;-85
2022/09/03 08:50:46;;;;;;;;;;;;;;;26.59;34.04;99277.50;4463015;32;34183;-84
2022/09/03 08:53:15;;;;;;;;;;;;;;;27.32;32.69;99278.16;4467044;32;33248;-84
2022/09/03 08:55:46;;;;;;;;;;;;;;;26.98;33.37;99268.41;4451822;32;34040;-84
2022/09/03 08:58:17;;;;;;;;;;;;;;;26.51;34.49;99271.72;4450810;32;35482;-86
2022/09/03 09:00:51;;;;;;;;;;;;;;;27.02;34.01;99267.31;4453157;32;34296;-86
2022/09/03 09:03:37;;;;;;;;;;;;;;;27.87;32.84;99267.97;4473300;32;33408;-82
2022/09/03 09:06:06;;;;;;;;;;;;;;;27.70;33.25;99264.53;4483035;32;33800;-83
2022/09/03 09:08:53;;;;;;;;;;;;;;;26.92;33.39;99262.47;4483194;32;34447;-84
2022/09/03 09:11:39;;;;;;;;;;;;;;;26.58;34.88;99263.34;4471001;32;34541;-83
2022/09/03 09:14:13;;;;;;;;;;;;;;;27.07;34.36;99265.25;4457706;32;33660;-84
2022/09/03 09:16:49;;;;;;;;;;;;;;;27.31;32.25;99258.62;4455885;32;34239;-84
2022/09/03 09:19:32;;;;;;;;;;;;;;;27.04;32.42;99255.63;4459684;32;34511;-85
2022/09/03 09:22:02;;;;;;;;;;;;;;;26.11;35.65;99261.28;4466890;32;34069;-86
2022/09/03 09:24:34;;;;;;;;;;;;;;;25.97;34.60;99250.44;4466985;32;33004;-85
2022/09/03 09:27:03;;;;;;;;;;;;;;;26.12;34.75;99254.16;4458783;32;34050;-83
2022/09/03 09:29:37;;;;;;;;;;;;;;;26.60;34.26;99247.34;4468174;32;35067;-83
2022/09/03 09:32:06;;;;;;;;;;;;;;;26.03;35.71;99247.50;4467012;32;34024;-81
2022/09/03 09:34:34;;;;;;;;;;;;;;;25.96;35.81;99244.28;4439548;32;33465;-85
2022/09/03 09:37:03;;;;;;;;;;;;;;;26.23;35.08;99250.97;4466529;32;34057;-84
2022/09/03 09:39:30;;;;;;;;;;;;;;;25.87;35.86;99251.81;4466134;32;34490;-85
2022/09/03 09:41:59;;;;;;;;;;;;;;;27.16;33.50;99247.03;4468143;32;35060;-82
2022/09/03 09:44:26;;;;;;;;;;;;;;;27.47;32.96;99247.16;4481991;31;34449;-83
2022/09/03 09:47:20;;;;;;;;;;;;;;;27.09;33.07;99252.75;4482223;32;33907;-82
2022/09/03 09:49:47;;;;;;;;;;;;;;;27.37;33.42;99247.66;4480232;32;34044;-83
2022/09/03 09:52:15;;;;;;;;;;;;;;;28.17;32.97;99243.19;4469805;32;33822;-83
2022/09/03 09:54:42;;;;;;;;;;;;;;;27.78;33.23;99254.31;4468901;32;34197;-83
2022/09/03 09:57:19;;;;;;;;;;;;;;;28.27;30.68;99254.16;4466191;32;34019;-86
2022/09/03 09:59:47;;;;;;;;;;;;;;;27.95;31.99;99242.69;4468054;32;35338;-82
2022/09/03 10:02:25;;;;;;;;;;;;;;;27.48;32.34;99254.19;4469256;32;34054;-81
2022/09/03 10:04:59;;;;;;;;;;;;;;;26.12;34.51;99255.00;4460816;32;34110;-82
2022/09/03 10:07:29;;;;;;;;;;;;;;;26.50;34.42;99252.25;4454284;32;34181;-83
2022/09/03 10:09:57;;;;;;;;;;;;;;;27.41;33.81;99253.66;4441663;32;34345;-83
2022/09/03 10:12:25;;;;;;;;;;;;;;;27.86;32.92;99249.41;4454281;32;34202;-85
2022/09/03 10:14:54;;;;;;;;;;;;;;;27.87;32.67;99251.97;4463666;32;33147;-82
2022/09/03 10:17:40;;;;;;;;;;;;;;;27.91;32.50;99244.66;4469821;32;34723;-83
2022/09/03 10:20:29;;;;;;;;;;;;;;;28.33;32.71;99248.47;4483982;32;33986;-83
2022/09/03 10:22:58;;;;;;;;;;;;;;;28.74;30.59;99245.16;4471976;32;33637;-82
2022/09/03 10:25:28;;;;;;;;;;;;;;;28.66;30.84;99239.44;4471211;32;34122;-83
2022/09/03 10:27:56;;;;;;;;;;;;;;;28.89;30.05;99236.22;4453770;32;33983;-84
2022/09/03 10:30:26;;;;;;;;;;;;;;;29.09;30.53;99233.22;4469011;32;35371;-85
2022/09/03 10:33:04;;;;;;;;;;;;;;;29.58;28.71;99239.94;4484187;32;33458;-84
2022/09/03 10:35:32;;;;;;;;;;;;;;;29.94;26.13;99231.37;4484150;31;33055;-84
2022/09/03 10:38:18;;;;;;;;;;;;;;;28.68;30.77;99234.84;4452810;32;33428;-85
2022/09/03 10:41:12;;;;;;;;;;;;;;;28.09;30.66;99230.28;4471853;32;34228;-86
2022/09/03 10:43:40;;;;;;;;;;;;;;;29.49;28.63;99222.69;4458604;32;34152;-83
2022/09/03 10:46:09;;;;;;;;;;;;;;;29.37;29.84;99226.13;4484046;32;34199;-83
2022/09/03 10:48:41;;;;;;;;;;;;;;;29.85;28.95;99226.59;4484121;32;34118;-84
2022/09/03 10:51:12;;;;;;;;;;;;;;;29.61;27.97;99218.38;4471691;32;35078;-84
2022/09/03 10:53:42;;;;;;;;;;;;;;;29.66;27.03;99221.59;4454036;32;34305;-83
2022/09/03 10:56:12;;;;;;;;;;;;;;;29.60;26.64;99216.69;4467999;32;33254;-84
2022/09/03 10:58:55;;;;;;;;;;;;;;;29.13;27.11;99214.31;4460437;32;34571;-83
2022/09/03 11:01:44;;;;;;;;;;;;;;;29.79;26.31;99211.00;4483373;32;34463;-83
2022/09/03 11:04:18;;;;;;;;;;;;;;;30.06;26.19;99208.31;4453169;32;35032;-83
2022/09/03 11:06:50;;;;;;;;;;;;;;;29.61;27.42;99205.03;4454465;32;33172;-84
2022/09/03 11:09:30;;;;;;;;;;;;;;;29.73;27.55;99216.72;4453812;32;34835;-84
2022/09/03 11:11:59;;;;;;;;;;;;;;;29.80;27.72;99208.22;4468007;32;33915;-84
2022/09/03 11:14:34;;;;;;;;;;;;;;;30.08;26.58;99211.75;4473876;32;34021;-84
2022/09/03 11:17:04;;;;;;;;;;;;;;;30.28;26.83;99215.78;4466782;32;33138;-84
2022/09/03 11:19:52;;;;;;;;;;;;;;;30.17;27.77;99213.81;4480871;32;33884;-83
2022/09/03 11:22:21;;;;;;;;;;;;;;;30.29;26.87;99217.47;4466812;32;35143;-85
2022/09/03 11:24:50;;;;;;;;;;;;;;;29.75;27.35;99212.16;4469500;32;33920;-84
2022/09/03 11:27:36;;;;;;;;;;;;;;;28.17;27.94;99223.66;4454615;32;33337;-84
2022/09/03 11:30:08;;;;;;;;;;;;;;;28.27;27.99;99207.03;4454575;32;32810;-86
2022/09/03 11:32:39;;;;;;;;;;;;;;;29.67;26.95;99214.47;4454655;32;33970;-84
2022/09/03 11:35:23;;;;;;;;;;;;;;;28.89;27.11;99217.53;4468049;32;34797;-82
2022/09/03 11:37:59;;;;;;;;;;;;;;;29.43;27.33;99217.72;4468101;32;32893;-82
2022/09/03 11:40:32;;;;;;;;;;;;;;;29.81;27.13;99209.06;4467608;32;34944;-85
2022/09/03 11:43:05;;;;;;;;;;;;;;;29.84;25.62;99213.34;4467809;32;35156;-83
2022/09/03 11:45:35;;;;;;;;;;;;;;;28.85;27.29;99213.34;4481497;32;33894;-84
2022/09/03 11:48:15;;;;;;;;;;;;;;;28.38;28.04;99219.78;4483682;32;33096;-84
2022/09/03 11:50:50;;;;;;;;;;;;;;;29.08;28.59;99219.97;4483314;32;34334;-84
2022/09/03 11:53:17;;;;;;;;;;;;;;;29.88;25.53;99210.38;4483643;32;33349;-83
2022/09/03 11:55:45;;;;;;;;;;;;;;;29.97;25.19;99204.44;4483430;32;34623;-85
2022/09/03 11:58:27;;;;;;;;;;;;;;;29.41;27.43;99222.31;4468988;32;33602;-85
2022/09/03 12:00:55;;;;;;;;;;;;;;;29.64;27.57;99222.69;4459102;32;34983;-86
2022/09/03 12:03:26;;;;;;;;;;;;;;;29.06;26.18;99217.41;4469064;32;34291;-84
2022/09/03 12:06:01;;;;;;;;;;;;;;;29.66;26.64;99218.09;4469648;32;33666;-84
2022/09/03 12:08:35;;;;;;;;;;;;;;;30.30;25.96;99224.53;4469233;32;33962;-83
2022/09/03 12:11:08;;;;;;;;;;;;;;;30.53;24.70;99226.53;4472656;32;33759;-81
2022/09/03 12:13:39;;;;;;;;;;;;;;;30.21;26.64;99217.16;4453272;32;34572;-85
2022/09/03 12:16:16;;;;;;;;;;;;;;;29.75;26.27;99214.84;4474250;32;34596;-85
2022/09/03 12:18:44;;;;;;;;;;;;;;;29.94;26.35;99209.13;4469221;32;33394;-84
2022/09/03 12:21:11;;;;;;;;;;;;;;;29.63;27.00;99212.97;4483290;32;34355;-85
2022/09/03 12:23:46;;;;;;;;;;;;;;;30.09;26.26;99209.94;4482896;32;35374;-82
2022/09/03 12:26:24;;;;;;;;;;;;;;;29.86;26.81;99217.66;4483181;32;34087;-84
2022/09/03 12:28:53;;;;;;;;;;;;;;;28.42;27.83;99213.31;4468873;32;33355;-82
2022/09/03 12:31:23;;;;;;;;;;;;;;;29.54;26.97;99215.22;4457867;32;34361;-82
2022/09/03 12:33:50;;;;;;;;;;;;;;;29.95;26.30;99211.69;4467546;32;33919;-85
2022/09/03 12:36:17;;;;;;;;;;;;;;;30.39;26.06;99209.72;4467096;32;34493;-83
2022/09/03 12:38:46;;;;;;;;;;;;;;;30.02;26.27;99207.66;4459174;32;32619;-85
2022/09/03 12:41:33;;;;;;;;;;;;;;;30.18;26.43;99201.31;4479879;32;34292;-83
2022/09/03 12:44:02;;;;;;;;;;;;;;;30.26;26.28;99198.97;4472803;32;34368;-82
2022/09/03 12:46:31;;;;;;;;;;;;;;;30.57;25.78;99197.72;4470782;32;33930;-81
2022/09/03 12:49:04;;;;;;;;;;;;;;;30.15;27.24;99196.97;4471409;32;33400;-81
2022/09/03 12:51:57;;;;;;;;;;;;;;;30.61;25.55;99209.94;4452405;32;34020;-82
2022/09/03 12:54:31;;;;;;;;;;;;;;;30.31;26.41;99202.22;4439762;32;33709;-82
2022/09/03 12:56:59;;;;;;;;;;;;;;;30.73;26.38;99214.44;4457834;32;33877;-83
2022/09/03 12:59:26;;;;;;;;;;;;;;;30.86;24.52;99208.25;4450108;32;34713;-82
2022/09/03 13:01:54;;;;;;;;;;;;;;;30.36;25.20;99202.75;4450242;32;34025;-84
2022/09/03 13:04:25;;;;;;;;;;;;;;;30.59;25.53;99211.84;4452370;32;35232;-84
2022/09/03 13:06:55;;;;;;;;;;;;;;;29.55;25.60;99205.41;4451943;32;34666;-86
2022/09/03 13:09:23;;;;;;;;;;;;;;;29.61;26.12;99207.69;4461163;32;34112;-85
2022/09/03 13:11:51;;;;;;;;;;;;;;;30.08;26.33;99195.72;4465266;32;34929;-85